Time;durP1;ratioP1;P1;durP2;ratioP2;P2;SDS_P1;SDS_P2;PMS_P1;PMS_P2;Temp;Humidity;BMP_temperature;BMP_pressure;BME280_temperature;BME280_humidity;BME280_pressure;Samples;Min_cycle;Max_cycle;Signal;HPM_P1;HPM_P2
2022/03/25 00:00:21;;;;;;;18.33;10.20;;;;;;;;;;5033546;28;20029;-65
2022/03/25 00:02:46;;;;;;;17.50;10.55;;;;;;;;;;5033013;28;20025;-65
2022/03/25 00:05:11;;;;;;;19.00;11.90;;;;;;;;;;5033477;28;20060;-65
2022/03/25 00:07:37;;;;;;;21.02;12.10;;;;;;;;;;5033231;28;20025;-65
2022/03/25 00:10:04;;;;;;;21.02;12.68;;;;;;;;;;5033364;28;20072;-65
2022/03/25 00:12:30;;;;;;;21.45;12.10;;;;;;;;;;5032907;28;20021;-65
2022/03/25 00:14:56;;;;;;;21.38;12.80;;;;;;;;;;5032061;28;20029;-65
2022/03/25 00:17:21;;;;;;;20.75;12.68;;;;;;;;;;5032496;28;20389;-65
2022/03/25 00:19:46;;;;;;;21.77;13.35;;;;;;;;;;5033068;28;20120;-65
2022/03/25 00:22:12;;;;;;;19.90;12.73;;;;;;;;;;5031671;28;20033;-65
2022/03/25 00:24:37;;;;;;;19.95;11.10;;;;;;;;;;5032838;28;20037;-64
2022/03/25 00:27:04;;;;;;;18.35;10.55;;;;;;;;;;5032925;28;20021;-64
2022/03/25 00:29:29;;;;;;;20.30;10.18;;;;;;;;;;5032802;28;20109;-64
2022/03/25 00:31:55;;;;;;;18.60;10.43;;;;;;;;;;5032646;28;20029;-65
2022/03/25 00:34:20;;;;;;;16.13;10.27;;;;;;;;;;5032541;28;20443;-65
2022/03/25 00:36:46;;;;;;;16.80;9.90;;;;;;;;;;5032724;28;20390;-65
2022/03/25 00:39:11;;;;;;;17.75;10.20;;;;;;;;;;5032640;28;20025;-65
2022/03/25 00:41:37;;;;;;;15.20;9.65;;;;;;;;;;5032790;28;20028;-65
2022/03/25 00:44:06;;;;;;;15.80;9.48;;;;;;;;;;5032475;28;20034;-65
2022/03/25 00:46:35;;;;;;;18.27;9.70;;;;;;;;;;5032803;28;20025;-65
2022/03/25 00:49:00;;;;;;;17.60;9.30;;;;;;;;;;5032021;28;20064;-65
2022/03/25 00:51:26;;;;;;;22.33;9.25;;;;;;;;;;5032212;28;20057;-65
2022/03/25 00:53:52;;;;;;;14.93;8.70;;;;;;;;;;5032135;28;20025;-65
2022/03/25 00:56:17;;;;;;;15.77;8.52;;;;;;;;;;5032764;28;20080;-65
2022/03/25 00:58:43;;;;;;;15.75;8.70;;;;;;;;;;5032218;28;20026;-65
2022/03/25 01:01:08;;;;;;;16.25;8.60;;;;;;;;;;5032636;28;20037;-65
2022/03/25 01:03:35;;;;;;;15.27;8.90;;;;;;;;;;5032118;28;20341;-65
2022/03/25 01:06:00;;;;;;;14.50;8.57;;;;;;;;;;5032149;28;20552;-65
2022/03/25 01:08:27;;;;;;;14.82;8.30;;;;;;;;;;5031903;28;20257;-65
2022/03/25 01:10:53;;;;;;;13.52;7.63;;;;;;;;;;5032435;28;20116;-65
2022/03/25 01:13:18;;;;;;;15.40;8.18;;;;;;;;;;5032016;28;20037;-65
2022/03/25 01:15:44;;;;;;;13.90;7.95;;;;;;;;;;5031977;28;20491;-65
2022/03/25 01:18:10;;;;;;;11.70;7.22;;;;;;;;;;5031833;28;20548;-64
2022/03/25 01:20:36;;;;;;;13.82;7.82;;;;;;;;;;5031859;28;20091;-65
2022/03/25 01:23:01;;;;;;;14.93;8.15;;;;;;;;;;5031623;28;20132;-65
2022/03/25 01:25:27;;;;;;;15.85;8.23;;;;;;;;;;5031669;28;20026;-65
2022/03/25 01:27:52;;;;;;;12.48;7.68;;;;;;;;;;5031245;28;20022;-65
2022/03/25 01:30:18;;;;;;;13.02;7.72;;;;;;;;;;5031767;28;20064;-65
2022/03/25 01:32:43;;;;;;;13.00;7.70;;;;;;;;;;5031659;28;20026;-65
2022/03/25 01:35:09;;;;;;;10.77;6.95;;;;;;;;;;5031433;28;20380;-65
2022/03/25 01:37:36;;;;;;;12.65;7.20;;;;;;;;;;5031770;28;20021;-65
2022/03/25 01:40:02;;;;;;;12.55;7.07;;;;;;;;;;5031184;28;20048;-64
2022/03/25 01:42:36;;;;;;;13.00;7.40;;;;;;;;;;5031340;28;20025;-65
2022/03/25 01:45:03;;;;;;;12.10;6.70;;;;;;;;;;5031400;28;20029;-65
2022/03/25 01:47:31;;;;;;;13.40;7.00;;;;;;;;;;5031303;28;20033;-65
2022/03/25 01:50:00;;;;;;;10.88;6.20;;;;;;;;;;5031223;28;20505;-65
2022/03/25 01:52:27;;;;;;;12.73;6.32;;;;;;;;;;5031304;28;20058;-65
2022/03/25 01:54:53;;;;;;;11.85;6.47;;;;;;;;;;5031508;28;20080;-66
2022/03/25 01:57:21;;;;;;;11.57;6.13;;;;;;;;;;5031265;28;20033;-65
2022/03/25 01:59:47;;;;;;;11.98;6.45;;;;;;;;;;5031339;28;20552;-65
2022/03/25 02:02:12;;;;;;;11.90;6.13;;;;;;;;;;5030983;28;20113;-65
2022/03/25 02:04:38;;;;;;;9.75;6.20;;;;;;;;;;5030590;28;20057;-65
2022/03/25 02:07:04;;;;;;;10.63;5.63;;;;;;;;;;5031195;28;20389;-65
2022/03/25 02:09:30;;;;;;;9.88;5.57;;;;;;;;;;5030855;28;20031;-64
2022/03/25 02:11:57;;;;;;;9.85;5.43;;;;;;;;;;5030898;28;20025;-65
2022/03/25 02:14:23;;;;;;;10.95;6.18;;;;;;;;;;5030534;28;20033;-64
2022/03/25 02:16:49;;;;;;;10.98;6.22;;;;;;;;;;5030698;28;20074;-65
2022/03/25 02:19:19;;;;;;;9.35;5.88;;;;;;;;;;5030569;28;20401;-65
2022/03/25 02:21:47;;;;;;;10.18;5.43;;;;;;;;;;5030626;28;20048;-65
2022/03/25 02:24:13;;;;;;;11.25;5.68;;;;;;;;;;5030785;28;20108;-65
2022/03/25 02:26:39;;;;;;;10.00;5.97;;;;;;;;;;5030757;28;20136;-65
2022/03/25 02:29:07;;;;;;;9.93;5.75;;;;;;;;;;5030429;28;20152;-65
2022/03/25 02:31:33;;;;;;;11.43;5.75;;;;;;;;;;5030805;28;20025;-65
2022/03/25 02:34:07;;;;;;;10.20;5.40;;;;;;;;;;5030283;28;20025;-65
2022/03/25 02:36:40;;;;;;;9.50;5.60;;;;;;;;;;5030589;28;20041;-65
2022/03/25 02:39:07;;;;;;;8.50;5.32;;;;;;;;;;5029782;28;20032;-65
2022/03/25 02:41:33;;;;;;;10.85;5.53;;;;;;;;;;5030309;28;20026;-66
2022/03/25 02:44:01;;;;;;;13.32;5.78;;;;;;;;;;5030522;28;20052;-65
2022/03/25 02:46:27;;;;;;;8.88;5.43;;;;;;;;;;5030149;28;20026;-65
2022/03/25 02:48:52;;;;;;;8.93;5.18;;;;;;;;;;5030200;28;20067;-65
2022/03/25 02:51:18;;;;;;;10.65;5.47;;;;;;;;;;5030014;28;20021;-65
2022/03/25 02:53:44;;;;;;;10.27;5.30;;;;;;;;;;5030153;28;20026;-65
2022/03/25 02:56:09;;;;;;;9.13;5.75;;;;;;;;;;5030307;28;20152;-64
2022/03/25 02:58:35;;;;;;;9.38;5.25;;;;;;;;;;5030263;28;20025;-65
2022/03/25 03:01:01;;;;;;;8.90;5.25;;;;;;;;;;5030073;28;20036;-65
2022/03/25 03:03:26;;;;;;;12.43;5.80;;;;;;;;;;5030031;28;20100;-65
2022/03/25 03:05:52;;;;;;;11.88;5.35;;;;;;;;;;5029697;28;20057;-65
2022/03/25 03:08:17;;;;;;;9.07;5.45;;;;;;;;;;5030328;28;20481;-65
2022/03/25 03:10:43;;;;;;;10.75;5.22;;;;;;;;;;5029876;28;20520;-65
2022/03/25 03:13:09;;;;;;;12.57;5.65;;;;;;;;;;5030037;28;20033;-65
2022/03/25 03:15:36;;;;;;;9.20;5.15;;;;;;;;;;5030296;28;20037;-64
2022/03/25 03:18:02;;;;;;;9.73;5.60;;;;;;;;;;5030278;28;20250;-65
2022/03/25 03:20:27;;;;;;;9.45;5.43;;;;;;;;;;5030196;28;20579;-65
2022/03/25 03:22:55;;;;;;;8.13;5.03;;;;;;;;;;5030004;28;20053;-65
2022/03/25 03:25:20;;;;;;;10.07;5.20;;;;;;;;;;5029866;28;20040;-65
2022/03/25 03:27:46;;;;;;;9.23;5.50;;;;;;;;;;5029989;28;20030;-65
2022/03/25 03:30:12;;;;;;;7.63;4.65;;;;;;;;;;5029960;28;20029;-65
2022/03/25 03:32:38;;;;;;;10.25;4.45;;;;;;;;;;5029910;28;20033;-65
2022/03/25 03:35:05;;;;;;;8.95;5.15;;;;;;;;;;5029868;28;20037;-64
2022/03/25 03:37:30;;;;;;;8.43;4.97;;;;;;;;;;5030155;28;20104;-65
2022/03/25 03:39:56;;;;;;;8.48;4.60;;;;;;;;;;5029975;28;20513;-64
2022/03/25 03:42:22;;;;;;;8.73;5.00;;;;;;;;;;5029736;28;20032;-65
2022/03/25 03:44:47;;;;;;;9.07;5.35;;;;;;;;;;5029998;28;20029;-65
2022/03/25 03:47:14;;;;;;;9.63;5.00;;;;;;;;;;5029750;28;20283;-65
2022/03/25 03:49:40;;;;;;;9.40;5.35;;;;;;;;;;5030716;28;20033;-65
2022/03/25 03:52:07;;;;;;;10.40;5.10;;;;;;;;;;5033246;28;20025;-65
2022/03/25 03:54:32;;;;;;;9.07;4.90;;;;;;;;;;5032224;28;20412;-64
2022/03/25 03:56:58;;;;;;;9.88;4.97;;;;;;;;;;5033324;28;20485;-64
2022/03/25 03:59:24;;;;;;;7.97;4.90;;;;;;;;;;5033511;28;20441;-64
2022/03/25 04:01:49;;;;;;;8.57;4.80;;;;;;;;;;5033164;28;20104;-65
2022/03/25 04:04:15;;;;;;;11.35;4.85;;;;;;;;;;5032983;28;20393;-65
2022/03/25 04:06:40;;;;;;;9.75;5.00;;;;;;;;;;5033335;28;20034;-65
2022/03/25 04:09:06;;;;;;;10.32;5.22;;;;;;;;;;5033370;28;20053;-65
2022/03/25 04:11:31;;;;;;;10.13;5.30;;;;;;;;;;5033127;28;20076;-65
2022/03/25 04:13:57;;;;;;;10.60;5.25;;;;;;;;;;5032895;28;20021;-65
2022/03/25 04:16:23;;;;;;;10.50;4.90;;;;;;;;;;5032895;28;20026;-65
2022/03/25 04:18:48;;;;;;;8.48;5.38;;;;;;;;;;5033149;28;20248;-65
2022/03/25 04:21:14;;;;;;;9.90;5.57;;;;;;;;;;5033091;28;20113;-65
2022/03/25 04:23:39;;;;;;;8.70;4.78;;;;;;;;;;5032989;28;20079;-65
2022/03/25 04:26:05;;;;;;;9.98;5.07;;;;;;;;;;5032753;28;20022;-65
2022/03/25 04:28:31;;;;;;;10.02;5.07;;;;;;;;;;5032880;28;20025;-65
2022/03/25 04:30:56;;;;;;;10.20;5.20;;;;;;;;;;5032609;28;20034;-68
2022/03/25 04:33:22;;;;;;;11.55;5.50;;;;;;;;;;5031311;28;20025;-65
2022/03/25 04:35:47;;;;;;;10.88;5.70;;;;;;;;;;5032596;28;20029;-65
2022/03/25 04:38:14;;;;;;;10.82;5.40;;;;;;;;;;5033098;28;20108;-65
2022/03/25 04:40:41;;;;;;;9.55;5.30;;;;;;;;;;5033136;28;20032;-65
2022/03/25 04:43:06;;;;;;;10.40;5.15;;;;;;;;;;5033057;28;20068;-64
2022/03/25 04:45:32;;;;;;;9.13;5.32;;;;;;;;;;5032795;28;20110;-64
2022/03/25 04:47:58;;;;;;;9.82;5.20;;;;;;;;;;5032411;28;20033;-65
2022/03/25 04:50:24;;;;;;;9.13;4.93;;;;;;;;;;5032607;28;20025;-65
2022/03/25 04:52:50;;;;;;;10.85;5.85;;;;;;;;;;5032034;28;20036;-65
2022/03/25 04:55:17;;;;;;;10.07;5.43;;;;;;;;;;5032537;28;20469;-65
2022/03/25 04:57:43;;;;;;;10.57;5.55;;;;;;;;;;5032310;28;20029;-65
2022/03/25 05:00:11;;;;;;;9.20;5.30;;;;;;;;;;5032349;28;20036;-64
2022/03/25 05:02:36;;;;;;;8.60;5.30;;;;;;;;;;5031282;28;20029;-65
2022/03/25 05:05:02;;;;;;;10.00;5.47;;;;;;;;;;5031992;28;20568;-65
2022/03/25 05:07:28;;;;;;;12.23;5.22;;;;;;;;;;5032282;28;20513;-65
2022/03/25 05:09:57;;;;;;;12.20;5.40;;;;;;;;;;5032117;28;20029;-64
2022/03/25 05:12:23;;;;;;;12.73;6.18;;;;;;;;;;5031897;28;20496;-65
2022/03/25 05:14:49;;;;;;;8.68;5.40;;;;;;;;;;5031889;28;20076;-65
2022/03/25 05:17:14;;;;;;;11.63;6.20;;;;;;;;;;5031768;28;20061;-65
2022/03/25 05:19:39;;;;;;;9.20;5.32;;;;;;;;;;5032056;28;20034;-65
2022/03/25 05:22:05;;;;;;;11.35;5.40;;;;;;;;;;5031715;28;20068;-64
2022/03/25 05:24:31;;;;;;;13.45;6.35;;;;;;;;;;5031619;28;20116;-65
2022/03/25 05:26:59;;;;;;;10.93;5.60;;;;;;;;;;5031706;28;20052;-65
2022/03/25 05:29:26;;;;;;;12.05;6.30;;;;;;;;;;5031907;28;20095;-65
2022/03/25 05:31:51;;;;;;;11.93;5.93;;;;;;;;;;5031343;28;20026;-65
2022/03/25 05:34:17;;;;;;;12.30;6.22;;;;;;;;;;5031681;28;20040;-65
2022/03/25 05:36:43;;;;;;;13.25;6.32;;;;;;;;;;5030082;28;20022;-65
2022/03/25 05:39:08;;;;;;;13.52;5.85;;;;;;;;;;5031397;28;20025;-65
2022/03/25 05:41:34;;;;;;;12.82;5.97;;;;;;;;;;5031073;28;20079;-65
2022/03/25 05:43:59;;;;;;;11.90;5.80;;;;;;;;;;5031218;28;20056;-65
2022/03/25 05:46:26;;;;;;;11.02;5.93;;;;;;;;;;5031300;28;20057;-64
2022/03/25 05:48:51;;;;;;;10.90;6.22;;;;;;;;;;5031503;28;20025;-65
2022/03/25 05:51:17;;;;;;;10.63;5.90;;;;;;;;;;5031323;28;20065;-65
2022/03/25 05:53:42;;;;;;;11.57;5.70;;;;;;;;;;5031050;28;20033;-65
2022/03/25 05:56:09;;;;;;;13.50;5.47;;;;;;;;;;5031229;28;20508;-65
2022/03/25 05:58:36;;;;;;;11.93;5.50;;;;;;;;;;5030935;28;20026;-64
2022/03/25 06:01:02;;;;;;;11.23;5.60;;;;;;;;;;5031292;28;20056;-65
2022/03/25 06:03:28;;;;;;;11.15;5.85;;;;;;;;;;5030689;28;20029;-65
2022/03/25 06:05:53;;;;;;;11.27;5.78;;;;;;;;;;5030826;28;20041;-65
2022/03/25 06:08:19;;;;;;;11.55;6.07;;;;;;;;;;5030679;28;20036;-64
2022/03/25 06:10:44;;;;;;;12.23;6.03;;;;;;;;;;5031026;28;20025;-65
2022/03/25 06:13:10;;;;;;;13.52;6.18;;;;;;;;;;5030419;28;20021;-65
2022/03/25 06:15:36;;;;;;;14.35;6.20;;;;;;;;;;5030654;28;20026;-65
2022/03/25 06:18:01;;;;;;;11.88;6.13;;;;;;;;;;5030532;28;20048;-65
2022/03/25 06:20:29;;;;;;;10.98;5.50;;;;;;;;;;5030974;28;20053;-65
2022/03/25 06:22:56;;;;;;;11.20;5.68;;;;;;;;;;5030386;28;20025;-67
2022/03/25 06:25:21;;;;;;;12.13;5.85;;;;;;;;;;5031151;28;20026;-65
2022/03/25 06:27:59;;;;;;;12.35;6.00;;;;;;;;;;5030629;28;20080;-65
2022/03/25 06:30:27;;;;;;;10.85;5.88;;;;;;;;;;5030577;28;20030;-65
2022/03/25 06:32:54;;;;;;;13.60;6.43;;;;;;;;;;5030295;28;20480;-65
2022/03/25 06:35:20;;;;;;;11.50;6.40;;;;;;;;;;5030640;28;20033;-65
2022/03/25 06:37:47;;;;;;;13.98;6.95;;;;;;;;;;5030506;28;20080;-65
2022/03/25 06:40:13;;;;;;;16.05;6.88;;;;;;;;;;5030654;28;20100;-65
2022/03/25 06:42:41;;;;;;;16.60;6.95;;;;;;;;;;5030448;28;20048;-65
2022/03/25 06:45:10;;;;;;;19.83;7.40;;;;;;;;;;5030244;28;20382;-65
2022/03/25 06:47:35;;;;;;;20.25;7.03;;;;;;;;;;5030285;28;20095;-65
2022/03/25 06:50:03;;;;;;;27.00;7.43;;;;;;;;;;5030445;28;20033;-65
2022/03/25 06:52:29;;;;;;;17.38;6.85;;;;;;;;;;5030193;28;20460;-65
2022/03/25 06:54:55;;;;;;;34.10;8.23;;;;;;;;;;5030041;28;20087;-65
2022/03/25 06:57:20;;;;;;;27.45;7.35;;;;;;;;;;5030455;28;20265;-65
2022/03/25 06:59:46;;;;;;;28.08;8.13;;;;;;;;;;5030448;28;20022;-66
2022/03/25 07:02:12;;;;;;;22.38;7.38;;;;;;;;;;5029927;28;20025;-65
2022/03/25 07:04:38;;;;;;;20.75;7.65;;;;;;;;;;5029782;28;20077;-65
2022/03/25 07:07:06;;;;;;;14.70;6.63;;;;;;;;;;5030254;28;20033;-65
2022/03/25 07:09:32;;;;;;;11.43;5.68;;;;;;;;;;5030004;28;20029;-65
2022/03/25 07:11:59;;;;;;;13.30;6.18;;;;;;;;;;5030568;28;20051;-65
2022/03/25 07:14:25;;;;;;;16.27;6.07;;;;;;;;;;5030008;28;20030;-66
2022/03/25 07:16:50;;;;;;;11.23;5.70;;;;;;;;;;5030114;28;20056;-65
2022/03/25 07:19:15;;;;;;;12.13;5.70;;;;;;;;;;5029795;28;20024;-65
2022/03/25 07:21:41;;;;;;;10.55;5.78;;;;;;;;;;5030038;28;20084;-65
2022/03/25 07:24:06;;;;;;;10.45;5.60;;;;;;;;;;5029320;28;20030;-66
2022/03/25 07:26:32;;;;;;;9.50;5.60;;;;;;;;;;5033662;28;20489;-65
2022/03/25 07:28:58;;;;;;;14.52;6.07;;;;;;;;;;5033501;28;20108;-65
2022/03/25 07:31:28;;;;;;;11.80;6.32;;;;;;;;;;5033778;28;20057;-65
2022/03/25 07:33:57;;;;;;;15.40;6.43;;;;;;;;;;5033327;28;20104;-65
2022/03/25 07:36:23;;;;;;;13.93;7.28;;;;;;;;;;5033823;28;20033;-65
2022/03/25 07:38:49;;;;;;;11.18;6.32;;;;;;;;;;5033405;28;20040;-65
2022/03/25 07:41:14;;;;;;;15.27;6.72;;;;;;;;;;5033592;28;20452;-65
2022/03/25 07:43:40;;;;;;;13.55;6.53;;;;;;;;;;5033261;28;20132;-65
2022/03/25 07:46:05;;;;;;;14.57;6.68;;;;;;;;;;5033741;28;20028;-66
2022/03/25 07:48:31;;;;;;;12.93;6.30;;;;;;;;;;5033188;28;20116;-66
2022/03/25 07:50:56;;;;;;;13.27;6.63;;;;;;;;;;5033579;28;20448;-65
2022/03/25 07:53:22;;;;;;;12.57;6.63;;;;;;;;;;5033302;28;20210;-66
2022/03/25 07:55:50;;;;;;;13.98;6.57;;;;;;;;;;5033116;28;20033;-69
2022/03/25 07:58:20;;;;;;;14.98;7.10;;;;;;;;;;5033181;28;20025;-67
2022/03/25 08:00:47;;;;;;;14.98;7.13;;;;;;;;;;5033296;28;20460;-66
2022/03/25 08:03:13;;;;;;;14.52;6.90;;;;;;;;;;5033494;28;20026;-65
2022/03/25 08:05:38;;;;;;;11.93;7.07;;;;;;;;;;5033124;28;20141;-66
2022/03/25 08:08:04;;;;;;;12.32;6.65;;;;;;;;;;5033026;28;20021;-65
2022/03/25 08:10:31;;;;;;;13.15;6.90;;;;;;;;;;5033388;28;20389;-66
2022/03/25 08:12:57;;;;;;;14.43;7.05;;;;;;;;;;5033175;28;20478;-66
2022/03/25 08:15:24;;;;;;;12.40;6.82;;;;;;;;;;5032881;28;20504;-66
2022/03/25 08:17:57;;;;;;;13.60;6.90;;;;;;;;;;5033036;28;20037;-66
2022/03/25 08:20:28;;;;;;;12.15;6.80;;;;;;;;;;5033085;28;20485;-66
2022/03/25 08:22:56;;;;;;;12.52;6.57;;;;;;;;;;5033309;28;20052;-66
2022/03/25 08:28:06;;;;;;;13.23;6.70;;;;;;;;;;5033313;28;20058;-66
2022/03/25 08:30:32;;;;;;;9.90;6.05;;;;;;;;;;5032654;28;20017;-66
2022/03/25 08:32:59;;;;;;;12.05;6.47;;;;;;;;;;5032414;28;20060;-66
2022/03/25 08:35:28;;;;;;;12.38;6.78;;;;;;;;;;5032846;28;20350;-66
2022/03/25 08:37:54;;;;;;;9.95;6.00;;;;;;;;;;5031877;28;20654;-66
2022/03/25 08:40:24;;;;;;;13.13;6.30;;;;;;;;;;5032597;28;20035;-66
2022/03/25 08:42:50;;;;;;;13.10;6.30;;;;;;;;;;5033114;28;20033;-66
2022/03/25 08:45:16;;;;;;;12.88;6.45;;;;;;;;;;5032120;28;20048;-66
2022/03/25 08:47:43;;;;;;;10.50;5.82;;;;;;;;;;5032410;28;20033;-66
2022/03/25 08:50:12;;;;;;;16.05;6.13;;;;;;;;;;5032675;28;20032;-66
2022/03/25 08:52:40;;;;;;;11.13;6.25;;;;;;;;;;5032464;28;20024;-66
2022/03/25 08:55:08;;;;;;;10.98;6.40;;;;;;;;;;5031951;28;20025;-67
2022/03/25 08:57:34;;;;;;;12.02;6.25;;;;;;;;;;5032760;28;20051;-66
2022/03/25 08:59:59;;;;;;;14.68;6.93;;;;;;;;;;5032185;28;20393;-66
2022/03/25 09:02:25;;;;;;;12.63;6.20;;;;;;;;;;5032266;28;20033;-65
2022/03/25 09:04:50;;;;;;;13.82;6.78;;;;;;;;;;5030218;28;20405;-66
2022/03/25 09:07:16;;;;;;;15.45;6.97;;;;;;;;;;5032259;28;20496;-65
2022/03/25 09:09:42;;;;;;;16.15;7.00;;;;;;;;;;5032084;28;20026;-65
2022/03/25 09:12:08;;;;;;;12.52;6.53;;;;;;;;;;5030824;28;20084;-65
2022/03/25 09:14:34;;;;;;;12.07;6.55;;;;;;;;;;5030419;28;20040;-66
2022/03/25 09:17:00;;;;;;;12.88;6.65;;;;;;;;;;5032028;28;20104;-65
2022/03/25 09:19:26;;;;;;;11.55;6.20;;;;;;;;;;5031872;28;20032;-65
2022/03/25 09:21:51;;;;;;;11.50;6.10;;;;;;;;;;5031928;28;20029;-65
2022/03/25 09:24:17;;;;;;;13.30;6.93;;;;;;;;;;5031567;28;20477;-65
2022/03/25 09:26:42;;;;;;;12.07;5.90;;;;;;;;;;5032166;28;20451;-65
2022/03/25 09:29:08;;;;;;;10.38;5.93;;;;;;;;;;5031795;28;20071;-65
2022/03/25 09:31:33;;;;;;;8.68;5.82;;;;;;;;;;5031720;28;20083;-66
2022/03/25 09:36:43;;;;;;;13.50;6.18;;;;;;;;;;5031992;28;20108;-67
2022/03/25 09:39:08;;;;;;;14.68;5.88;;;;;;;;;;5031451;28;20440;-66
2022/03/25 09:41:35;;;;;;;12.23;6.13;;;;;;;;;;5031621;28;20485;-68
2022/03/25 09:44:02;;;;;;;11.38;6.05;;;;;;;;;;5031458;28;20052;-69
2022/03/25 09:46:27;;;;;;;8.75;5.47;;;;;;;;;;5031251;28;20112;-69
2022/03/25 09:48:53;;;;;;;12.77;5.97;;;;;;;;;;5030964;28;20108;-68
2022/03/25 09:51:19;;;;;;;13.68;6.22;;;;;;;;;;5031296;28;20064;-70
2022/03/25 09:53:46;;;;;;;10.02;5.85;;;;;;;;;;5031757;28;20543;-68
2022/03/25 09:56:11;;;;;;;10.50;5.93;;;;;;;;;;5030971;28;20108;-68
2022/03/25 09:58:36;;;;;;;11.27;5.75;;;;;;;;;;5031248;28;20505;-67
2022/03/25 10:01:02;;;;;;;10.15;6.00;;;;;;;;;;5031023;28;20488;-68
2022/03/25 10:03:36;;;;;;;10.35;5.60;;;;;;;;;;5031640;28;20460;-68
2022/03/25 10:06:02;;;;;;;14.25;6.18;;;;;;;;;;5030845;28;20049;-68
2022/03/25 10:08:31;;;;;;;11.90;6.07;;;;;;;;;;5031301;28;20028;-68
2022/03/25 10:11:17;;;;;;;10.80;6.10;;;;;;;;;;5030882;28;20078;-69
2022/03/25 10:13:42;;;;;;;8.32;5.63;;;;;;;;;;5030840;28;20112;-69
2022/03/25 10:16:30;;;;;;;10.80;6.00;;;;;;;;;;5030160;28;20601;-71
2022/03/25 10:18:57;;;;;;;14.98;6.32;;;;;;;;;;5030764;28;20029;-70
2022/03/25 10:21:23;;;;;;;14.63;6.53;;;;;;;;;;5030583;28;20108;-70
2022/03/25 10:23:49;;;;;;;10.13;6.10;;;;;;;;;;5030708;28;20025;-67
2022/03/25 10:26:15;;;;;;;10.32;6.20;;;;;;;;;;5030282;28;20417;-70
2022/03/25 10:28:43;;;;;;;12.73;6.40;;;;;;;;;;5030596;28;20034;-71
2022/03/25 10:31:15;;;;;;;11.60;5.90;;;;;;;;;;5030307;28;20104;-68
2022/03/25 10:33:49;;;;;;;13.63;5.72;;;;;;;;;;5030243;28;20040;-70
2022/03/25 10:36:25;;;;;;;15.63;5.85;;;;;;;;;;5030216;28;20033;-69
2022/03/25 10:39:11;;;;;;;13.00;6.15;;;;;;;;;;5030805;28;20091;-69
2022/03/25 10:41:45;;;;;;;9.75;5.70;;;;;;;;;;5030630;28;20052;-69
2022/03/25 10:44:11;;;;;;;15.00;6.53;;;;;;;;;;5030591;28;20029;-68
2022/03/25 10:46:40;;;;;;;12.25;6.03;;;;;;;;;;5030196;28;20112;-68
2022/03/25 10:49:08;;;;;;;12.18;6.18;;;;;;;;;;5030352;28;20109;-68
2022/03/25 10:51:35;;;;;;;13.27;6.20;;;;;;;;;;5030238;28;20036;-70
2022/03/25 10:54:08;;;;;;;12.02;6.50;;;;;;;;;;5030697;28;20079;-68
2022/03/25 10:56:47;;;;;;;11.65;5.90;;;;;;;;;;5030039;28;20035;-68
2022/03/25 10:59:29;;;;;;;14.55;6.68;;;;;;;;;;5029819;28;20105;-68
2022/03/25 11:01:58;;;;;;;15.20;6.60;;;;;;;;;;5029947;28;20148;-70
2022/03/25 11:04:24;;;;;;;13.02;6.22;;;;;;;;;;5030198;28;20033;-69
2022/03/25 11:06:50;;;;;;;14.70;6.38;;;;;;;;;;5029886;28;20481;-69
2022/03/25 11:09:17;;;;;;;15.02;6.72;;;;;;;;;;5030657;28;20056;-69
2022/03/25 11:11:44;;;;;;;10.48;6.15;;;;;;;;;;5030191;28;20091;-69
2022/03/25 11:14:10;;;;;;;18.27;6.82;;;;;;;;;;5028953;28;20370;-69
2022/03/25 11:16:40;;;;;;;12.00;5.85;;;;;;;;;;5029843;28;20030;-68
2022/03/25 11:19:08;;;;;;;13.03;6.90;;;;;;;;;;5028858;28;20485;-68
2022/03/25 11:21:39;;;;;;;16.67;6.63;;;;;;;;;;5029969;28;20021;-69
2022/03/25 11:24:08;;;;;;;13.18;6.35;;;;;;;;;;5029958;28;20489;-69
2022/03/25 11:26:40;;;;;;;16.17;6.55;;;;;;;;;;5029722;28;20393;-68
2022/03/25 11:29:11;;;;;;;16.27;6.35;;;;;;;;;;5030221;28;20025;-70
2022/03/25 11:32:10;;;;;;;13.15;6.57;;;;;;;;;;5029841;28;20017;-67
2022/03/25 11:34:44;;;;;;;15.48;6.78;;;;;;;;;;5030037;28;20663;-68
2022/03/25 11:37:22;;;;;;;13.60;6.00;;;;;;;;;;5029500;28;20105;-69
2022/03/25 11:40:08;;;;;;;12.48;6.50;;;;;;;;;;5029916;28;20036;-68
2022/03/25 11:42:41;;;;;;;12.77;6.68;;;;;;;;;;5029762;28;20036;-68
2022/03/25 11:45:22;;;;;;;14.20;6.18;;;;;;;;;;5029782;28;20445;-67
2022/03/25 11:47:59;;;;;;;13.85;6.30;;;;;;;;;;5029663;28;20520;-68
2022/03/25 11:50:35;;;;;;;15.82;6.97;;;;;;;;;;5029777;28;20431;-71
2022/03/25 11:53:12;;;;;;;14.45;6.43;;;;;;;;;;5029785;28;20024;-71
2022/03/25 11:55:59;;;;;;;12.38;6.45;;;;;;;;;;5029447;28;20052;-67
2022/03/25 11:58:26;;;;;;;13.63;6.32;;;;;;;;;;5029716;28;20017;-68
2022/03/25 12:01:00;;;;;;;11.95;6.15;;;;;;;;;;5029488;28;20419;-67
2022/03/25 12:03:42;;;;;;;13.93;6.18;;;;;;;;;;5029742;28;20025;-68
2022/03/25 12:06:09;;;;;;;15.95;9.10;;;;;;;;;;5029311;28;20121;-69
2022/03/25 12:08:35;;;;;;;13.02;6.43;;;;;;;;;;5029641;28;20025;-71
2022/03/25 12:11:07;;;;;;;11.73;6.45;;;;;;;;;;5030681;28;20037;-72
2022/03/25 12:13:54;;;;;;;13.63;6.32;;;;;;;;;;5033089;28;20052;-73
2022/03/25 12:16:47;;;;;;;12.43;6.20;;;;;;;;;;5032624;28;20025;-71
2022/03/25 12:19:38;;;;;;;14.90;6.38;;;;;;;;;;5033092;28;20400;-70
2022/03/25 12:22:28;;;;;;;11.95;6.25;;;;;;;;;;5032824;28;20049;-71
2022/03/25 12:25:04;;;;;;;17.13;6.65;;;;;;;;;;5026887;28;20041;-71
2022/03/25 12:27:30;;;;;;;13.82;6.65;;;;;;;;;;5032627;28;20037;-71
2022/03/25 12:29:56;;;;;;;15.65;6.18;;;;;;;;;;5032788;28;20434;-71
2022/03/25 12:32:24;;;;;;;14.52;6.90;;;;;;;;;;5032252;28;20029;-68
2022/03/25 12:34:55;;;;;;;12.98;6.45;;;;;;;;;;5032921;28;20029;-68
2022/03/25 12:37:37;;;;;;;18.40;6.43;;;;;;;;;;5032356;28;20040;-69
2022/03/25 12:40:11;;;;;;;13.93;6.57;;;;;;;;;;5032756;28;20029;-68
2022/03/25 12:42:37;;;;;;;13.48;6.25;;;;;;;;;;5032654;28;20060;-68
2022/03/25 12:45:03;;;;;;;16.05;6.10;;;;;;;;;;5032653;28;20057;-68
2022/03/25 12:47:36;;;;;;;18.13;6.45;;;;;;;;;;5032024;28;20566;-67
2022/03/25 12:50:04;;;;;;;14.85;6.50;;;;;;;;;;5032571;28;20108;-68
2022/03/25 12:52:30;;;;;;;12.43;6.32;;;;;;;;;;5032265;28;20535;-67
2022/03/25 12:55:05;;;;;;;13.18;6.13;;;;;;;;;;5032526;28;20029;-67
2022/03/25 12:57:37;;;;;;;14.00;6.05;;;;;;;;;;5032128;28;20383;-68
2022/03/25 13:00:05;;;;;;;15.80;6.10;;;;;;;;;;5032943;28;20025;-68
2022/03/25 13:02:36;;;;;;;14.35;6.60;;;;;;;;;;5031953;28;20029;-67
2022/03/25 13:05:15;;;;;;;11.48;5.85;;;;;;;;;;5031948;28;20103;-72
2022/03/25 13:07:57;;;;;;;14.18;6.03;;;;;;;;;;5031927;28;20029;-71
2022/03/25 13:10:23;;;;;;;16.75;6.70;;;;;;;;;;5032080;28;20045;-70
2022/03/25 13:12:52;;;;;;;11.07;5.60;;;;;;;;;;5031975;28;20025;-70
2022/03/25 13:15:25;;;;;;;10.55;6.10;;;;;;;;;;5032196;28;20032;-70
2022/03/25 13:17:53;;;;;;;13.57;6.40;;;;;;;;;;5031582;28;20456;-70
2022/03/25 13:20:24;;;;;;;11.40;5.70;;;;;;;;;;5031956;28;20031;-70
2022/03/25 13:22:56;;;;;;;15.55;5.93;;;;;;;;;;5031155;28;20048;-68
2022/03/25 13:25:31;;;;;;;11.00;5.55;;;;;;;;;;5031974;28;20026;-73
2022/03/25 13:27:59;;;;;;;19.52;6.53;;;;;;;;;;5031651;28;20040;-68
2022/03/25 13:30:27;;;;;;;13.60;5.75;;;;;;;;;;5031926;28;20547;-69
2022/03/25 13:33:10;;;;;;;13.35;6.30;;;;;;;;;;5031802;28;20480;-70
2022/03/25 13:35:41;;;;;;;10.02;5.53;;;;;;;;;;5031835;28;20059;-66
2022/03/25 13:38:11;;;;;;;12.15;5.97;;;;;;;;;;5031240;28;20513;-65
2022/03/25 13:40:49;;;;;;;14.80;5.97;;;;;;;;;;5031481;28;20037;-65
2022/03/25 13:43:20;;;;;;;11.57;6.10;;;;;;;;;;5031594;28;20029;-65
2022/03/25 13:46:05;;;;;;;;;;;;;;;;;;5031821;28;20029;-65
2022/03/25 13:48:41;;;;;;;14.68;5.72;;;;;;;;;;5031289;28;20411;-66
2022/03/25 13:51:27;;;;;;;11.57;5.65;;;;;;;;;;5031575;28;20121;-66
2022/03/25 13:54:08;;;;;;;13.55;5.18;;;;;;;;;;5031318;28;20022;-65
2022/03/25 13:56:33;;;;;;;;;;;;;;;;;;5031615;28;20501;-66
2022/03/25 13:58:59;;;;;;;13.43;5.32;;;;;;;;;;5031554;28;20228;-65
2022/03/25 14:01:39;;;;;;;14.93;5.45;;;;;;;;;;5031404;28;20040;-66
2022/03/25 14:04:22;;;;;;;11.40;5.80;;;;;;;;;;5031165;28;20029;-65
2022/03/25 14:06:50;;;;;;;13.00;5.70;;;;;;;;;;5030971;28;20407;-65
2022/03/25 14:09:37;;;;;;;10.75;5.75;;;;;;;;;;5030982;28;20034;-65
2022/03/25 14:12:14;;;;;;;11.23;5.78;;;;;;;;;;5030814;28;20025;-65
2022/03/25 14:14:41;;;;;;;11.93;5.75;;;;;;;;;;5030856;28;20048;-66
2022/03/25 14:17:14;;;;;;;12.93;5.40;;;;;;;;;;5030539;28;20179;-65
2022/03/25 14:19:40;;;;;;;11.45;5.47;;;;;;;;;;5030963;28;20132;-65
2022/03/25 14:22:08;;;;;;;18.23;5.53;;;;;;;;;;5030856;28;20159;-66
2022/03/25 14:24:34;;;;;;;14.85;6.00;;;;;;;;;;5030944;28;20029;-65
2022/03/25 14:27:05;;;;;;;12.85;5.45;;;;;;;;;;5030655;28;20115;-66
2022/03/25 14:29:31;;;;;;;15.63;5.70;;;;;;;;;;5030609;28;20029;-66
2022/03/25 14:31:56;;;;;;;11.35;5.28;;;;;;;;;;5030295;28;20029;-65
2022/03/25 14:34:22;;;;;;;16.05;5.82;;;;;;;;;;5029571;28;20022;-67
2022/03/25 14:36:47;;;;;;;11.02;5.38;;;;;;;;;;5030545;28;20025;-65
2022/03/25 14:39:13;;;;;;;14.80;5.80;;;;;;;;;;5030672;28;20029;-65
2022/03/25 14:41:40;;;;;;;11.82;5.32;;;;;;;;;;5030751;28;20029;-65